Washington, District of Columbia
Current Conditions -  °F | °C
As of 6:52 PM on Wednesday 26 Nov 2014 (Local Time) from KDCA Reporting Station
Light Rain Light Rain  
Wind Chill: 32°   Ceiling: 1300
Heat Index: 39°   Visibility: 10mi
Dew Point: 33°   Wind: 10mph
Humidity: 79%   Direction: 320°NW
Pressure: 29.96"   Gusts: NA
Location:  38.89°N, 77.03°W
Report Text: KDCA 262352Z 32009KT 10SM -RA BKN013 OVC090 04/01 A2996 RMK AO2 SLP143 P0000 60015 T00390006 10044 20028 50000
Loading
Personal Weather Stations






























Interactive Weather Map New forecast layout! Learn more

10-Day Weather Forecast

Advertisements
Track Severe Weather on mobile